Global Triumph — V7DU5 — position and weather

sailwx.info

Track history (hours):
 
Tides and Currents Weather Stations Pressure Air Temp Water Temp Dewpoint Dewpoint Depression Visibility Wind Speed Wind Dir Waves Ship Positions

Global Triumph

Last reported at 2016-Sep-24 02:31 UTC. Time now 2016-Sep-25 17:25 UTC.
Position N 38°39' E 120°45'.

Length 225 m; draft 6.9 m.

Type: Cargo ship. MMSI: 538001709.

Date/timePositionNaut miles runAvg speedWind from/ knotsBaromVisibWave heightAir tempDewpointWater temp
2016-Sep-24 02:31N 38°39' E 120°45'1515.4
2016-Sep-24 01:33N 38°34' E 121°03'9315.4
2016-Sep-23 19:33N 38°03' E 122°54'2914.7
2016-Sep-23 17:33N 37°45' E 123°23'1716.3
2016-Sep-23 16:33N 37°30' E 123°31'2216.6
2016-Sep-23 15:12N 37°10' E 123°44'  
2016-Sep-21 02:27N 38°24' E 121°18'16914.2
2016-Sep-20 14:31N 39°00' E 117°47'0 0.0
2016-Sep-20 13:31N 39°00' E 117°47'0 0.0
2016-Sep-20 10:33N 39°00' E 117°47'0 0.0
2016-Sep-20 08:33N 39°00' E 117°47'0 0.0
2016-Sep-20 07:32N 39°00' E 117°47'0 0.0
2016-Sep-20 06:33N 39°00' E 117°47'1 0.3
2016-Sep-20 02:33N 38°59' E 117°47'  
Track history (hours):
 
Tides and Currents Weather Stations Pressure Air Temp Water Temp Dewpoint Dewpoint Depression Visibility Wind Speed Wind Dir Waves Ship Positions

Global Triumph

Last reported at 2016-Sep-24 02:31 UTC. Time now 2016-Sep-25 17:25 UTC.
Position N 38°39' E 120°45'.

Length 225 m; draft 6.9 m.

Type: Cargo ship. MMSI: 538001709.

Date/timePositionNaut miles runAvg speedWind from/ knotsBaromVisibWave heightAir tempDewpointWater temp
2016-Sep-24 02:31N 38°39' E 120°45'1515.4
2016-Sep-24 01:33N 38°34' E 121°03'9315.4
2016-Sep-23 19:33N 38°03' E 122°54'2914.7
2016-Sep-23 17:33N 37°45' E 123°23'1716.3
2016-Sep-23 16:33N 37°30' E 123°31'2216.6
2016-Sep-23 15:12N 37°10' E 123°44'  
2016-Sep-21 02:27N 38°24' E 121°18'16914.2
2016-Sep-20 14:31N 39°00' E 117°47'0 0.0
2016-Sep-20 13:31N 39°00' E 117°47'0 0.0
2016-Sep-20 10:33N 39°00' E 117°47'0 0.0
2016-Sep-20 08:33N 39°00' E 117°47'0 0.0
2016-Sep-20 07:32N 39°00' E 117°47'0 0.0
2016-Sep-20 06:33N 39°00' E 117°47'1 0.3
2016-Sep-20 02:33N 38°59' E 117°47'  

Dump ship's entire track history